createdAt,value
2023-01-08T00:02:50.149Z,23.50
2023-01-08T00:07:53.319Z,22.10
2023-01-08T00:12:56.834Z,22.90
2023-01-08T00:18:00.242Z,23.20
2023-01-08T00:23:03.460Z,22.30
2023-01-08T00:28:06.670Z,21.60
2023-01-08T00:33:10.701Z,23.40
2023-01-08T00:38:13.724Z,23.50
2023-01-08T00:43:16.816Z,23.10
2023-01-08T00:48:22.537Z,22.50
2023-01-08T00:53:25.590Z,22.30
2023-01-08T00:58:29.145Z,23.20
2023-01-08T01:03:32.218Z,21.00
2023-01-08T01:08:35.541Z,23.40
2023-01-08T01:13:38.633Z,23.60
2023-01-08T01:18:41.747Z,22.90
2023-01-08T01:23:44.750Z,20.10
2023-01-08T01:28:50.011Z,25.20
2023-01-08T01:33:53.021Z,24.30
2023-01-08T01:38:57.803Z,21.80
2023-01-08T01:44:36.005Z,21.60
2023-01-08T01:49:42.176Z,22.60
2023-01-08T01:54:45.667Z,20.70
2023-01-08T01:59:49.292Z,21.70
2023-01-08T02:04:52.514Z,22.30
2023-01-08T02:10:08.127Z,21.30
2023-01-08T02:15:17.698Z,20.00
2023-01-08T02:20:36.879Z,21.30
2023-01-08T02:26:08.250Z,19.80
2023-01-08T02:31:13.340Z,20.80
2023-01-08T02:36:48.062Z,18.20
2023-01-08T02:42:05.758Z,20.50
2023-01-08T02:47:24.992Z,20.20
2023-01-08T02:52:32.892Z,24.10
2023-01-08T02:57:36.714Z,25.10
2023-01-08T03:02:41.775Z,22.80
2023-01-08T03:07:44.795Z,21.70
2023-01-08T03:13:01.346Z,24.10
2023-01-08T03:18:09.975Z,24.20
2023-01-08T03:23:15.818Z,25.30
2023-01-08T03:28:24.046Z,23.20
2023-01-08T03:33:28.300Z,22.90
2023-01-08T03:38:40.825Z,24.70
2023-01-08T03:43:43.839Z,26.30
2023-01-08T03:48:48.626Z,24.60
2023-01-08T03:53:58.597Z,22.00
2023-01-08T03:59:01.489Z,26.30
2023-01-08T04:04:04.710Z,26.60
2023-01-08T04:09:07.879Z,24.30
2023-01-08T04:14:12.422Z,24.40
2023-01-08T04:19:15.527Z,23.60
2023-01-08T04:24:19.227Z,24.60
2023-01-08T04:29:22.280Z,22.30
2023-01-08T04:34:25.263Z,22.70
2023-01-08T04:39:28.379Z,23.50
2023-01-08T04:44:31.585Z,26.60
2023-01-08T04:49:34.490Z,25.20
2023-01-08T04:54:37.511Z,24.20
2023-01-08T04:59:40.499Z,23.10
2023-01-08T05:04:43.613Z,24.70
2023-01-08T05:09:46.715Z,21.70
2023-01-08T05:14:49.726Z,22.70
2023-01-08T05:19:52.833Z,25.10
2023-01-08T05:24:55.737Z,23.50
2023-01-08T05:29:58.843Z,24.60
2023-01-08T05:35:01.854Z,24.20
2023-01-08T05:40:05.682Z,22.30
2023-01-08T05:45:09.212Z,24.40
2023-01-08T05:50:12.203Z,22.80
2023-01-08T05:55:15.369Z,21.30
2023-01-08T06:00:18.622Z,24.10
2023-01-08T06:05:21.573Z,22.70
2023-01-08T06:10:25.146Z,21.90
2023-01-08T06:15:28.158Z,22.60
2023-01-08T06:20:31.167Z,24.40
2023-01-08T06:25:34.165Z,23.30
2023-01-08T06:30:37.080Z,22.30
2023-01-08T06:35:40.184Z,23.20
2023-01-08T06:40:43.187Z,21.90
2023-01-08T06:45:53.534Z,22.70
2023-01-08T06:51:00.204Z,22.00
2023-01-08T06:56:04.635Z,21.70
2023-01-08T07:01:07.600Z,22.50
2023-01-08T07:06:19.482Z,21.00
2023-01-08T07:11:22.419Z,19.40
2023-01-08T07:16:25.601Z,19.90
2023-01-08T07:21:28.859Z,18.90
2023-01-08T07:26:31.853Z,21.10
2023-01-08T07:31:35.001Z,19.90
2023-01-08T07:36:38.070Z,17.50
2023-01-08T07:41:41.073Z,20.40
2023-01-08T07:46:44.248Z,20.60
2023-01-08T07:51:49.831Z,20.90
2023-01-08T07:56:54.873Z,21.10
2023-01-08T08:01:57.932Z,20.90
2023-01-08T08:07:01.223Z,21.20
2023-01-08T08:12:04.704Z,17.20
2023-01-08T08:17:07.749Z,18.00
2023-01-08T08:22:10.762Z,19.70
2023-01-08T08:27:13.870Z,18.90
2023-01-08T08:32:16.873Z,17.50
2023-01-08T08:37:19.979Z,17.70
2023-01-08T08:42:22.987Z,17.80
2023-01-08T08:47:26.209Z,16.30
2023-01-08T08:52:30.949Z,15.90
2023-01-08T08:57:34.069Z,16.70
2023-01-08T09:02:37.457Z,17.10
2023-01-08T09:07:40.690Z,17.00
2023-01-08T09:12:43.997Z,18.20
2023-01-08T09:17:53.229Z,19.20
2023-01-08T09:22:59.478Z,20.60
2023-01-08T09:28:05.712Z,20.20
2023-01-08T09:33:09.916Z,19.30
2023-01-08T09:38:12.952Z,18.20
2023-01-08T09:43:20.044Z,18.00
2023-01-08T09:48:28.445Z,17.10
2023-01-08T09:53:33.422Z,20.60
2023-01-08T09:58:44.556Z,18.10
2023-01-08T10:04:06.487Z,17.00
2023-01-08T10:09:14.619Z,16.90
2023-01-08T10:14:28.485Z,21.30
2023-01-08T10:19:31.487Z,17.30
2023-01-08T10:24:38.035Z,16.70
2023-01-08T10:29:41.984Z,16.70
2023-01-08T10:34:46.447Z,16.50
2023-01-08T10:39:50.271Z,18.70
2023-01-08T10:45:01.047Z,18.70
2023-01-08T10:50:14.006Z,17.70
2023-01-08T10:55:24.985Z,18.00
2023-01-08T11:00:31.296Z,17.80
2023-01-08T11:05:43.254Z,17.70
2023-01-08T11:11:00.424Z,17.30
2023-01-08T11:16:10.716Z,19.50
2023-01-08T11:21:25.901Z,18.70
2023-01-08T11:26:29.623Z,16.90
2023-01-08T11:31:39.909Z,18.20
2023-01-08T11:36:54.878Z,18.30
2023-01-08T11:42:14.497Z,19.30
2023-01-08T11:47:44.002Z,16.60
2023-01-08T11:53:05.344Z,17.70
2023-01-08T11:58:43.062Z,17.80
2023-01-08T12:04:01.132Z,17.60
2023-01-08T12:09:25.948Z,19.70
2023-01-08T12:14:40.312Z,19.90
2023-01-08T12:19:49.257Z,19.30
2023-01-08T12:25:01.179Z,17.90
2023-01-08T12:31:01.846Z,16.40
2023-01-08T12:41:19.403Z,18.90
2023-01-08T12:46:24.888Z,16.60
2023-01-08T12:51:41.376Z,19.40
2023-01-08T12:56:50.464Z,19.80
2023-01-08T13:02:12.089Z,17.90
2023-01-08T13:07:36.205Z,18.30
2023-01-08T13:12:41.197Z,16.90
2023-01-08T13:17:49.427Z,19.30
2023-01-08T13:22:58.196Z,18.10
2023-01-08T13:28:17.412Z,17.70
2023-01-08T13:33:36.081Z,18.60
2023-01-08T13:38:43.798Z,19.40
2023-01-08T13:43:47.116Z,20.70
2023-01-08T13:49:04.916Z,20.10
2023-01-08T13:54:15.046Z,21.40
2023-01-08T13:59:30.268Z,20.20
2023-01-08T14:04:33.242Z,18.70
2023-01-08T14:09:36.352Z,19.10
2023-01-08T14:14:39.663Z,19.50
2023-01-08T14:19:43.748Z,18.70
2023-01-08T14:24:56.129Z,17.20
2023-01-08T14:29:59.331Z,18.80
2023-01-08T14:35:04.050Z,20.40
2023-01-08T14:40:15.684Z,19.60
2023-01-08T14:45:28.538Z,15.90
2023-01-08T14:50:36.241Z,17.10
2023-01-08T14:55:44.699Z,16.90
2023-01-08T15:00:54.574Z,17.50
2023-01-08T15:05:57.696Z,15.40
2023-01-08T15:11:02.397Z,17.60
2023-01-08T15:16:18.486Z,18.20
2023-01-08T15:21:23.588Z,17.90
2023-01-08T15:26:27.277Z,17.10
2023-01-08T15:31:36.236Z,15.50
2023-01-08T15:36:39.251Z,16.00
2023-01-08T15:42:01.290Z,16.80
2023-01-08T15:47:04.585Z,17.10
2023-01-08T15:52:08.945Z,16.00
2023-01-08T15:57:12.365Z,16.00
2023-01-08T16:02:16.724Z,16.30
2023-01-08T16:07:19.950Z,18.10
2023-01-08T16:12:23.233Z,17.90
2023-01-08T16:17:26.224Z,18.50
2023-01-08T16:22:29.337Z,19.30
2023-01-08T16:27:33.080Z,21.90
2023-01-08T16:32:36.164Z,20.80
2023-01-08T16:37:40.088Z,21.70
2023-01-08T16:42:43.307Z,19.40
2023-01-08T16:47:46.416Z,23.20
2023-01-08T16:52:50.955Z,21.50
2023-01-08T16:57:55.471Z,20.70
2023-01-08T17:02:58.834Z,25.60
2023-01-08T17:08:02.143Z,23.50
2023-01-08T17:13:05.149Z,20.60
2023-01-08T17:18:08.246Z,21.20
2023-01-08T17:23:11.270Z,20.70
2023-01-08T17:28:14.360Z,21.20
2023-01-08T17:33:17.376Z,21.30
2023-01-08T17:38:20.471Z,19.40
2023-01-08T17:43:23.610Z,18.40
2023-01-08T17:48:26.894Z,19.40
2023-01-08T17:53:30.419Z,18.40
2023-01-08T17:58:33.729Z,20.50
2023-01-08T18:03:36.837Z,19.60
2023-01-08T18:08:41.071Z,22.90
2023-01-08T18:13:44.179Z,20.00
2023-01-08T18:18:47.191Z,19.30
2023-01-08T18:23:50.604Z,18.70
2023-01-08T18:28:53.610Z,17.40
2023-01-08T18:33:56.823Z,16.70
2023-01-08T18:39:00.451Z,18.20
2023-01-08T18:44:06.211Z,20.20
2023-01-08T18:49:09.431Z,18.90
2023-01-08T18:54:13.255Z,20.90
2023-01-08T18:59:17.278Z,19.90
2023-01-08T19:04:20.595Z,20.50
2023-01-08T19:09:24.115Z,18.60
2023-01-08T19:14:27.444Z,22.00
2023-01-08T19:19:30.443Z,20.10
2023-01-08T19:24:33.747Z,20.90
2023-01-08T19:29:36.857Z,19.20
2023-01-08T19:34:40.270Z,21.20
2023-01-08T19:39:43.789Z,17.80
2023-01-08T19:45:19.454Z,30.80
2023-01-08T19:50:25.539Z,20.50
2023-01-08T19:55:28.547Z,19.70
2023-01-08T20:00:37.528Z,19.70
2023-01-08T20:05:42.370Z,22.40
2023-01-08T20:10:45.552Z,19.80
2023-01-08T20:15:58.039Z,21.80
2023-01-08T20:21:21.078Z,19.50
2023-01-08T20:26:23.964Z,21.10
2023-01-08T20:31:34.173Z,21.30
2023-01-08T20:36:37.550Z,20.20
2023-01-08T20:41:46.513Z,22.40
2023-01-08T20:47:04.039Z,22.60
2023-01-08T20:52:07.157Z,24.00
2023-01-08T20:57:10.261Z,22.80
2023-01-08T21:02:13.533Z,23.40
2023-01-08T21:07:16.621Z,22.30
2023-01-08T21:12:19.487Z,23.10
2023-01-08T21:17:22.693Z,24.40
2023-01-08T21:22:25.705Z,23.90
2023-01-08T21:27:28.608Z,24.20
2023-01-08T21:32:31.713Z,23.30
2023-01-08T21:37:34.721Z,22.60
2023-01-08T21:42:59.438Z,24.30
2023-01-08T21:48:02.253Z,23.50
2023-01-08T21:53:23.797Z,23.20
2023-01-08T21:58:28.284Z,24.10
2023-01-08T22:03:31.119Z,19.90
2023-01-08T22:08:35.503Z,22.60
2023-01-08T22:13:39.442Z,24.60
2023-01-08T22:18:42.387Z,23.20
2023-01-08T22:23:45.302Z,22.30
2023-01-08T22:28:48.312Z,24.40
2023-01-08T22:33:54.487Z,26.20
2023-01-08T22:38:57.597Z,25.10
2023-01-08T22:44:00.603Z,26.70
2023-01-08T22:49:04.510Z,25.80
2023-01-08T22:54:07.537Z,23.60
2023-01-08T22:59:10.441Z,23.60
2023-01-08T23:04:15.580Z,25.40
2023-01-08T23:09:18.911Z,27.50
2023-01-08T23:14:21.922Z,26.70
2023-01-08T23:19:24.820Z,27.80
2023-01-08T23:24:30.080Z,27.10
2023-01-08T23:29:33.087Z,23.70
2023-01-08T23:34:36.203Z,20.40
2023-01-08T23:39:39.201Z,27.30
2023-01-08T23:44:42.718Z,23.90
2023-01-08T23:49:46.031Z,24.00
2023-01-08T23:54:49.037Z,23.50
2023-01-08T23:59:54.959Z,26.20
